createdAt,value
2023-04-15T00:02:17.483Z,3.54
2023-04-15T00:04:43.658Z,3.15
2023-04-15T00:07:09.780Z,3.20
2023-04-15T00:09:35.896Z,3.44
2023-04-15T00:12:02.011Z,3.56
2023-04-15T00:14:28.152Z,3.59
2023-04-15T00:16:54.369Z,3.70
2023-04-15T00:19:20.583Z,3.56
2023-04-15T00:21:46.717Z,3.63
2023-04-15T00:24:12.862Z,3.81
2023-04-15T00:26:39.006Z,4.02
2023-04-15T00:29:05.117Z,3.74
2023-04-15T00:31:31.238Z,3.73
2023-04-15T00:33:57.357Z,3.70
2023-04-15T00:36:23.514Z,3.69
2023-04-15T00:39:07.822Z,3.77
2023-04-15T00:41:33.947Z,3.73
2023-04-15T00:44:00.047Z,3.73
2023-04-15T00:46:26.181Z,3.76
2023-04-15T00:48:52.324Z,3.79
2023-04-15T00:51:18.443Z,3.86
2023-04-15T00:53:44.581Z,3.77
2023-04-15T00:56:10.755Z,3.47
2023-04-15T00:58:36.932Z,3.49
2023-04-15T01:01:03.070Z,3.61
2023-04-15T01:03:29.231Z,3.73
2023-04-15T01:05:55.420Z,3.78
2023-04-15T01:08:21.588Z,3.60
2023-04-15T01:10:47.683Z,3.65
2023-04-15T01:13:13.785Z,3.54
2023-04-15T01:15:39.933Z,3.16
2023-04-15T01:23:40.301Z,3.36
2023-04-15T01:26:06.455Z,3.26
2023-04-15T01:31:23.009Z,3.44
2023-04-15T01:33:49.150Z,3.51
2023-04-15T01:36:15.294Z,3.06
2023-04-15T01:38:41.492Z,3.19
2023-04-15T01:41:07.648Z,3.13
2023-04-15T01:43:33.757Z,3.18
2023-04-15T01:45:59.872Z,3.16
2023-04-15T01:48:26.012Z,2.90
2023-04-15T01:50:52.156Z,2.71
2023-04-15T01:53:18.301Z,2.97
2023-04-15T01:55:44.408Z,2.97
2023-04-15T01:58:10.536Z,2.78
2023-04-15T02:00:36.686Z,2.36
2023-04-15T02:03:02.947Z,2.89
2023-04-15T02:05:29.151Z,2.92
2023-04-15T02:07:55.294Z,2.86
2023-04-15T02:10:21.426Z,2.88
2023-04-15T02:12:47.568Z,2.69
2023-04-15T02:15:13.713Z,2.52
2023-04-15T02:17:39.913Z,2.85
2023-04-15T02:20:06.026Z,3.07
2023-04-15T02:22:32.163Z,3.37
2023-04-15T02:24:58.305Z,3.52
2023-04-15T02:27:43.950Z,3.62
2023-04-15T02:30:10.093Z,3.46
2023-04-15T02:32:36.323Z,3.57
2023-04-15T02:35:02.488Z,3.57
2023-04-15T02:37:28.644Z,3.55
2023-04-15T02:39:54.749Z,3.50
2023-04-15T02:42:20.881Z,3.18
2023-04-15T02:44:47.010Z,3.26
2023-04-15T02:47:13.182Z,2.63
2023-04-15T02:49:39.327Z,2.71
2023-04-15T02:52:05.428Z,2.70
2023-04-15T02:54:31.554Z,2.59
2023-04-15T02:56:57.649Z,2.73
2023-04-15T02:59:23.785Z,2.56
2023-04-15T03:01:50.020Z,2.50
2023-04-15T03:04:16.302Z,2.56
2023-04-15T03:06:42.556Z,2.60
2023-04-15T03:09:08.692Z,2.57
2023-04-15T03:11:36.066Z,2.61
2023-04-15T03:25:13.207Z,3.54
2023-04-15T03:27:39.376Z,3.61
2023-04-15T03:30:05.501Z,3.45
2023-04-15T03:32:31.681Z,3.58
2023-04-15T03:34:57.820Z,3.62
2023-04-15T03:37:23.942Z,3.63
2023-04-15T03:39:50.057Z,3.59
2023-04-15T03:42:16.190Z,3.70
2023-04-15T03:44:42.270Z,3.46
2023-04-15T03:47:08.393Z,3.50
2023-04-15T03:49:34.537Z,3.50
2023-04-15T03:52:00.744Z,3.39
2023-04-15T03:54:26.913Z,3.37
2023-04-15T03:56:53.032Z,3.25
2023-04-15T03:59:19.180Z,2.96
2023-04-15T04:01:45.376Z,2.98
2023-04-15T04:04:11.625Z,3.15
2023-04-15T04:06:37.764Z,3.65
2023-04-15T04:09:03.967Z,3.43
2023-04-15T04:11:30.121Z,3.41
2023-04-15T04:13:56.319Z,3.47
2023-04-15T04:16:22.572Z,3.55
2023-04-15T04:18:48.844Z,3.62
2023-04-15T04:21:14.990Z,3.55
2023-04-15T04:23:41.114Z,3.67
2023-04-15T04:26:07.227Z,3.65
2023-04-15T04:28:33.375Z,3.55
2023-04-15T04:30:59.532Z,3.63
2023-04-15T04:33:25.687Z,3.61
2023-04-15T04:35:51.835Z,3.55
2023-04-15T04:38:17.964Z,3.52
2023-04-15T04:40:44.095Z,3.45
2023-04-15T04:43:10.192Z,3.21
2023-04-15T04:45:36.354Z,3.25
2023-04-15T04:48:02.512Z,3.27
2023-04-15T04:50:28.661Z,3.39
2023-04-15T04:52:54.777Z,3.52
2023-04-15T04:55:20.907Z,3.67
2023-04-15T04:58:05.192Z,3.63
2023-04-15T05:00:31.321Z,3.77
2023-04-15T05:11:23.171Z,3.61
2023-04-15T05:13:49.319Z,2.85
2023-04-15T05:24:39.300Z,2.97
2023-04-15T05:27:05.441Z,2.94
2023-04-15T05:30:15.432Z,3.20
2023-04-15T05:32:41.690Z,3.53
2023-04-15T05:35:07.869Z,3.66
2023-04-15T05:37:34.006Z,3.74
2023-04-15T05:40:00.185Z,3.73
2023-04-15T05:42:26.303Z,3.59
2023-04-15T05:44:52.474Z,3.73
2023-04-15T05:47:18.599Z,3.80
2023-04-15T05:49:44.731Z,3.55
2023-04-15T05:52:10.856Z,3.24
2023-04-15T05:54:36.946Z,3.59
2023-04-15T05:57:03.095Z,3.91
2023-04-15T05:59:29.302Z,4.18
2023-04-15T06:01:55.438Z,4.31
2023-04-15T06:04:21.643Z,4.11
2023-04-15T06:06:47.866Z,4.03
2023-04-15T06:09:14.019Z,4.13
2023-04-15T06:11:40.143Z,3.92
2023-04-15T06:14:06.287Z,3.78
2023-04-15T06:16:32.534Z,3.64
2023-04-15T06:18:58.833Z,2.61
2023-04-15T06:32:29.077Z,1.27
2023-04-15T06:34:55.218Z,0.98
2023-04-15T06:37:21.348Z,1.52
2023-04-15T06:39:47.508Z,1.98
2023-04-15T06:42:13.615Z,2.26
2023-04-15T06:44:39.691Z,3.08
2023-04-15T06:47:05.826Z,3.47
2023-04-15T06:49:31.952Z,3.33
2023-04-15T06:51:58.094Z,3.92
2023-04-15T06:54:24.243Z,4.57
2023-04-15T06:56:50.381Z,4.89
2023-04-15T06:59:16.489Z,5.15
2023-04-15T07:01:42.600Z,5.34
2023-04-15T07:04:08.746Z,5.70
2023-04-15T07:06:34.899Z,5.94
2023-04-15T07:09:14.106Z,6.10
2023-04-15T07:11:40.268Z,6.09
2023-04-15T07:14:06.401Z,6.10
2023-04-15T07:16:32.555Z,6.04
2023-04-15T07:18:58.767Z,5.71
2023-04-15T07:21:24.917Z,5.84
2023-04-15T07:23:51.067Z,5.94
2023-04-15T07:26:17.178Z,5.65
2023-04-15T07:28:43.309Z,6.14
2023-04-15T07:31:09.459Z,6.34
2023-04-15T07:33:35.598Z,6.24
2023-04-15T07:36:01.727Z,6.28
2023-04-15T07:38:27.884Z,6.39
2023-04-15T07:40:54.011Z,6.39
2023-04-15T07:43:20.117Z,6.35
2023-04-15T07:45:46.271Z,6.25
2023-04-15T07:48:12.560Z,5.91
2023-04-15T07:50:38.957Z,4.82
2023-04-15T07:55:58.240Z,4.30
2023-04-15T07:58:24.402Z,4.05
2023-04-15T08:00:50.572Z,4.08
2023-04-15T08:03:16.855Z,4.08
2023-04-15T08:05:43.079Z,3.91
2023-04-15T08:08:09.223Z,4.98
2023-04-15T08:10:35.343Z,5.04
2023-04-15T08:13:01.543Z,5.76
2023-04-15T08:15:27.696Z,5.98
2023-04-15T08:17:53.941Z,5.66
2023-04-15T08:20:20.152Z,6.15
2023-04-15T08:22:46.346Z,4.52
2023-04-15T08:25:12.532Z,4.43
2023-04-15T08:27:38.695Z,3.86
2023-04-15T08:30:05.180Z,3.42
2023-04-15T08:32:31.566Z,3.58
2023-04-15T08:34:57.718Z,2.78
2023-04-15T08:37:23.804Z,2.96
2023-04-15T08:39:49.928Z,2.31
2023-04-15T08:42:16.088Z,1.96
2023-04-15T08:44:42.244Z,1.92
2023-04-15T08:47:08.490Z,1.78
2023-04-15T08:49:34.714Z,2.06
2023-04-15T08:52:00.855Z,1.56
2023-04-15T08:54:26.967Z,2.01
2023-04-15T08:56:53.185Z,1.71
2023-04-15T08:59:19.358Z,1.32
2023-04-15T09:01:45.524Z,1.32
2023-04-15T09:04:11.767Z,1.14
2023-04-15T09:06:37.950Z,1.13
2023-04-15T09:09:04.213Z,1.18
2023-04-15T09:11:30.370Z,1.37
2023-04-15T09:13:56.480Z,1.20
2023-04-15T09:16:22.678Z,1.48
2023-04-15T09:18:48.871Z,1.48
2023-04-15T09:21:15.001Z,1.52
2023-04-15T09:23:41.290Z,1.94
2023-04-15T09:26:07.443Z,1.76
2023-04-15T09:28:33.548Z,2.03
2023-04-15T09:30:59.680Z,2.39
2023-04-15T09:33:25.951Z,2.41
2023-04-15T09:35:52.097Z,2.44
2023-04-15T09:38:18.244Z,2.44
2023-04-15T09:40:44.366Z,2.74
2023-04-15T09:43:10.470Z,2.80
2023-04-15T09:45:36.634Z,2.41
2023-04-15T09:48:02.825Z,2.21
2023-04-15T09:50:29.052Z,2.06
2023-04-15T09:52:55.187Z,1.42
2023-04-15T09:55:21.269Z,0.93
2023-04-15T09:57:47.472Z,1.10
2023-04-15T10:00:13.634Z,1.01
2023-04-15T10:02:39.992Z,0.54
2023-04-15T10:05:06.247Z,0.87
2023-04-15T10:07:32.412Z,1.85
2023-04-15T10:09:58.528Z,2.57
2023-04-15T10:12:24.643Z,2.56
2023-04-15T10:14:50.738Z,2.97
2023-04-15T10:17:16.933Z,3.35
2023-04-15T10:19:43.072Z,3.43
2023-04-15T10:24:49.225Z,4.16
2023-04-15T10:27:15.339Z,4.89
2023-04-15T10:29:41.468Z,4.99
2023-04-15T10:32:07.569Z,5.61
2023-04-15T10:34:33.685Z,5.95
2023-04-15T10:36:59.816Z,5.70
2023-04-15T10:39:25.899Z,5.74
2023-04-15T10:41:52.011Z,6.10
2023-04-15T10:44:18.111Z,6.12
2023-04-15T10:46:44.262Z,6.19
2023-04-15T10:49:10.366Z,6.47
2023-04-15T10:51:36.444Z,6.59
2023-04-15T10:54:02.533Z,7.13
2023-04-15T10:56:28.615Z,7.28
2023-04-15T10:58:54.709Z,7.38
2023-04-15T11:01:20.923Z,7.01
2023-04-15T11:03:47.164Z,6.92
2023-04-15T11:06:13.474Z,6.82
2023-04-15T11:08:39.570Z,6.13
2023-04-15T11:11:05.749Z,6.52
2023-04-15T11:13:31.861Z,4.53
2023-04-15T11:15:58.019Z,4.45
2023-04-15T11:18:24.197Z,4.69
2023-04-15T11:20:50.296Z,5.82
2023-04-15T11:23:16.457Z,5.68
2023-04-15T11:25:42.556Z,5.30
2023-04-15T11:28:08.709Z,5.10
2023-04-15T11:30:35.115Z,3.94
2023-04-15T11:33:01.272Z,4.36
2023-04-15T11:35:27.419Z,3.85
2023-04-15T11:37:53.504Z,4.64
2023-04-15T11:40:19.641Z,3.66
2023-04-15T11:42:49.638Z,4.28
2023-04-15T11:45:16.181Z,4.61
2023-04-15T11:47:42.300Z,4.36
2023-04-15T11:50:08.460Z,3.60
2023-04-15T11:52:34.569Z,3.74
2023-04-15T11:55:00.651Z,3.29
2023-04-15T11:57:26.754Z,3.91
2023-04-15T11:59:52.861Z,4.18
2023-04-15T12:02:19.080Z,4.00
2023-04-15T12:04:45.382Z,3.63
2023-04-15T12:07:11.549Z,3.13
2023-04-15T12:09:37.668Z,3.77
2023-04-15T12:12:03.775Z,3.56
2023-04-15T12:14:29.882Z,3.97
2023-04-15T12:16:58.328Z,4.27
2023-04-15T12:19:24.745Z,4.77
2023-04-15T12:21:50.914Z,4.30
2023-04-15T12:24:17.048Z,3.94
2023-04-15T12:26:43.150Z,3.50
2023-04-15T12:29:09.249Z,3.66
2023-04-15T12:31:35.428Z,4.37
2023-04-15T12:34:01.598Z,3.66
2023-04-15T12:36:27.764Z,3.80
2023-04-15T12:38:53.930Z,3.63
2023-04-15T12:41:20.033Z,4.08
2023-04-15T12:43:46.174Z,4.34
2023-04-15T12:46:12.275Z,3.92
2023-04-15T12:48:38.392Z,4.52
2023-04-15T12:51:05.738Z,4.29
2023-04-15T12:53:31.963Z,5.13
2023-04-15T12:55:58.061Z,4.27
2023-04-15T12:58:24.158Z,3.96
2023-04-15T13:00:50.248Z,3.80
2023-04-15T13:03:16.412Z,4.22
2023-04-15T13:05:42.633Z,3.99
2023-04-15T13:08:08.766Z,3.91
2023-04-15T13:10:34.866Z,3.28
2023-04-15T13:13:00.985Z,3.74
2023-04-15T13:15:27.135Z,4.51
2023-04-15T13:17:53.286Z,4.49
2023-04-15T13:20:19.444Z,4.08
2023-04-15T13:22:45.557Z,4.21
2023-04-15T13:25:11.666Z,4.44
2023-04-15T13:27:37.762Z,4.39
2023-04-15T13:30:03.843Z,4.57
2023-04-15T13:32:29.991Z,4.77
2023-04-15T13:34:56.118Z,4.71
2023-04-15T13:37:22.224Z,5.22
2023-04-15T13:39:48.340Z,6.21
2023-04-15T13:42:14.453Z,6.51
2023-04-15T13:44:40.569Z,5.68
2023-04-15T13:47:06.676Z,6.99
2023-04-15T13:49:32.787Z,6.31
2023-04-15T13:51:58.939Z,5.89
2023-04-15T13:54:25.029Z,5.22
2023-04-15T13:57:04.065Z,5.57
2023-04-15T13:59:30.178Z,4.76
2023-04-15T14:01:56.297Z,5.08
2023-04-15T14:04:22.524Z,4.74
2023-04-15T14:06:48.721Z,5.48
2023-04-15T14:09:14.845Z,5.63
2023-04-15T14:11:40.962Z,5.37
2023-04-15T14:14:07.162Z,5.22
2023-04-15T14:16:33.318Z,6.00
2023-04-15T14:18:59.456Z,6.21
2023-04-15T14:21:25.579Z,5.57
2023-04-15T14:23:51.682Z,6.22
2023-04-15T14:26:17.799Z,6.53
2023-04-15T14:28:43.929Z,6.12
2023-04-15T14:31:10.076Z,5.81
2023-04-15T14:33:37.062Z,4.80
2023-04-15T14:36:03.185Z,4.60
2023-04-15T14:38:29.294Z,5.09
2023-04-15T14:40:55.393Z,5.20
2023-04-15T14:43:21.809Z,5.47
2023-04-15T14:45:48.002Z,5.70
2023-04-15T14:48:14.147Z,4.66
2023-04-15T14:50:40.357Z,4.79
2023-04-15T14:53:06.454Z,4.36
2023-04-15T14:55:32.551Z,3.76
2023-04-15T14:57:58.644Z,4.02
2023-04-15T15:00:24.734Z,3.16
2023-04-15T15:02:50.933Z,3.87
2023-04-15T15:05:17.223Z,4.03
2023-04-15T15:07:43.441Z,4.02
2023-04-15T15:10:09.572Z,3.91
2023-04-15T15:12:35.695Z,3.45
2023-04-15T15:15:04.690Z,3.25
2023-04-15T15:17:33.374Z,3.39
2023-04-15T15:19:59.523Z,3.15
2023-04-15T15:22:25.633Z,3.12
2023-04-15T15:24:51.729Z,3.24
2023-04-15T15:27:17.860Z,3.53
2023-04-15T15:29:43.940Z,4.29
2023-04-15T15:32:10.023Z,3.52
2023-04-15T15:34:36.129Z,3.38
2023-04-15T15:37:02.240Z,3.23
2023-04-15T15:39:28.388Z,3.24
2023-04-15T15:41:54.477Z,3.72
2023-04-15T15:44:20.596Z,3.86
2023-04-15T15:46:46.765Z,3.93
2023-04-15T15:49:12.891Z,4.33
2023-04-15T15:51:38.991Z,4.24
2023-04-15T15:54:05.082Z,4.44
2023-04-15T15:56:31.195Z,4.08
2023-04-15T15:58:57.294Z,4.06
2023-04-15T16:01:23.434Z,3.77
2023-04-15T16:03:49.717Z,3.44
2023-04-15T16:06:15.956Z,3.44
2023-04-15T16:08:42.072Z,3.21
2023-04-15T16:11:08.166Z,3.57
2023-04-15T16:13:34.277Z,3.05
2023-04-15T16:16:00.406Z,2.75
2023-04-15T16:18:26.567Z,2.55
2023-04-15T16:20:52.675Z,2.83
2023-04-15T16:23:18.805Z,3.21
2023-04-15T16:25:44.976Z,3.51
2023-04-15T16:28:25.199Z,3.41
2023-04-15T16:30:52.727Z,3.35
2023-04-15T16:33:18.859Z,3.63
2023-04-15T16:35:44.954Z,3.65
2023-04-15T16:38:11.055Z,4.10
2023-04-15T16:40:37.175Z,3.68
2023-04-15T16:43:03.269Z,3.95
2023-04-15T16:45:29.378Z,3.73
2023-04-15T16:47:55.540Z,4.34
2023-04-15T16:50:21.675Z,4.10
2023-04-15T16:52:47.765Z,4.35
2023-04-15T16:55:13.899Z,3.99
2023-04-15T16:58:00.709Z,3.99
2023-04-15T17:00:26.070Z,3.85
2023-04-15T17:02:52.337Z,3.86
2023-04-15T17:05:18.506Z,3.03
2023-04-15T17:07:44.645Z,3.32
2023-04-15T17:10:10.743Z,3.22
2023-04-15T17:12:36.853Z,3.03
2023-04-15T17:15:03.031Z,3.47
2023-04-15T17:17:29.181Z,3.35
2023-04-15T17:19:58.042Z,2.75
2023-04-15T17:22:24.123Z,2.55
2023-04-15T17:24:50.220Z,2.66
2023-04-15T17:27:16.347Z,2.93
2023-04-15T17:29:42.616Z,2.83
2023-04-15T17:32:08.716Z,3.17
2023-04-15T17:34:49.401Z,3.42
2023-04-15T17:37:17.306Z,2.81
2023-04-15T17:39:43.443Z,2.80
2023-04-15T17:42:09.536Z,2.70
2023-04-15T17:44:35.655Z,2.82
2023-04-15T17:47:01.885Z,2.55
2023-04-15T17:49:28.010Z,2.57
2023-04-15T17:51:54.119Z,2.57
2023-04-15T17:54:20.200Z,2.66
2023-04-15T17:56:46.326Z,2.74
2023-04-15T17:59:12.431Z,2.21
2023-04-15T18:01:38.560Z,1.82
2023-04-15T18:04:05.127Z,1.57
2023-04-15T18:06:31.625Z,1.77
2023-04-15T18:08:57.739Z,2.06
2023-04-15T18:11:23.854Z,2.16
2023-04-15T18:13:49.990Z,2.15
2023-04-15T18:16:16.150Z,2.24
2023-04-15T18:18:42.293Z,2.40
2023-04-15T18:21:08.384Z,2.40
2023-04-15T18:23:34.489Z,2.36
2023-04-15T18:26:00.604Z,2.00
2023-04-15T18:28:26.710Z,1.80
2023-04-15T18:30:52.805Z,2.41
2023-04-15T18:33:18.920Z,2.04
2023-04-15T18:35:45.123Z,2.17
2023-04-15T18:38:11.222Z,2.45
2023-04-15T18:40:37.326Z,2.03
2023-04-15T18:43:03.426Z,2.03
2023-04-15T18:45:29.537Z,2.41
2023-04-15T18:47:55.882Z,2.05
2023-04-15T18:50:21.999Z,2.10
2023-04-15T18:52:48.097Z,2.32
2023-04-15T18:55:14.188Z,2.77
2023-04-15T18:57:40.309Z,3.13
2023-04-15T19:00:07.346Z,3.09
2023-04-15T19:02:33.550Z,2.97
2023-04-15T19:04:59.736Z,3.10
2023-04-15T19:07:25.816Z,3.05
2023-04-15T19:09:51.927Z,3.13
2023-04-15T19:12:18.039Z,3.49
2023-04-15T19:14:44.168Z,3.49
2023-04-15T19:17:10.252Z,3.69
2023-04-15T19:19:36.356Z,3.68
2023-04-15T19:22:02.469Z,3.26
2023-04-15T19:24:28.568Z,3.26
2023-04-15T19:26:54.704Z,3.22
2023-04-15T19:29:20.808Z,3.10
2023-04-15T19:31:46.900Z,3.65
2023-04-15T19:34:13.011Z,3.77
2023-04-15T19:36:39.195Z,3.90
2023-04-15T19:39:05.524Z,4.07
2023-04-15T19:41:31.797Z,4.21
2023-04-15T19:43:57.893Z,4.19
2023-04-15T19:46:24.036Z,3.81
2023-04-15T19:48:50.175Z,3.73
2023-04-15T19:51:16.270Z,3.65
2023-04-15T19:53:42.380Z,3.73
2023-04-15T19:56:08.498Z,3.94
2023-04-15T19:58:34.588Z,3.83
2023-04-15T20:01:00.677Z,3.76
2023-04-15T20:03:26.950Z,3.71
2023-04-15T20:05:53.208Z,3.72
2023-04-15T20:08:19.368Z,3.68
2023-04-15T20:10:45.467Z,3.67
2023-04-15T20:13:11.580Z,3.71
2023-04-15T20:15:37.746Z,3.70
2023-04-15T20:18:03.960Z,3.76
2023-04-15T20:20:30.082Z,3.84
2023-04-15T20:22:56.304Z,3.95
2023-04-15T20:25:22.434Z,3.80
2023-04-15T20:27:48.539Z,3.97
2023-04-15T20:30:14.644Z,3.75
2023-04-15T20:32:40.776Z,3.78
2023-04-15T20:35:06.937Z,3.39
2023-04-15T20:37:33.221Z,3.30
2023-04-15T20:39:59.594Z,3.42
2023-04-15T20:42:25.712Z,3.48
2023-04-15T20:44:51.825Z,3.56
2023-04-15T20:47:18.039Z,3.19
2023-04-15T20:49:44.190Z,3.32
2023-04-15T20:52:10.283Z,3.69
2023-04-15T20:54:36.397Z,3.80
2023-04-15T20:57:02.500Z,3.50
2023-04-15T20:59:28.607Z,3.36
2023-04-15T21:01:54.809Z,3.46
2023-04-15T21:04:20.984Z,3.56
2023-04-15T21:06:47.099Z,3.32
2023-04-15T21:09:13.205Z,3.07
2023-04-15T21:11:57.417Z,3.26
2023-04-15T21:14:25.390Z,3.58
2023-04-15T21:16:51.551Z,3.60
2023-04-15T21:19:17.661Z,3.83
2023-04-15T21:21:43.743Z,3.65
2023-04-15T21:24:09.867Z,3.59
2023-04-15T21:26:36.037Z,3.52
2023-04-15T21:29:02.276Z,3.56
2023-04-15T21:31:28.525Z,3.59
2023-04-15T21:33:54.633Z,3.54
2023-04-15T21:36:20.796Z,3.65
2023-04-15T21:38:46.957Z,3.62
2023-04-15T21:41:13.052Z,3.50
2023-04-15T21:43:39.146Z,3.52
2023-04-15T21:46:22.156Z,3.45
2023-04-15T21:48:49.938Z,3.13
2023-04-15T21:51:16.026Z,3.17
2023-04-15T21:53:42.216Z,3.16
2023-04-15T21:56:08.322Z,3.26
2023-04-15T21:58:34.428Z,3.25
2023-04-15T22:01:00.631Z,3.25
2023-04-15T22:03:26.909Z,3.26
2023-04-15T22:05:53.104Z,2.99
2023-04-15T22:08:19.217Z,2.96
2023-04-15T22:10:45.323Z,2.99
2023-04-15T22:13:11.484Z,3.06
2023-04-15T22:15:37.577Z,3.01
2023-04-15T22:18:03.734Z,3.03
2023-04-15T22:20:29.905Z,3.08
2023-04-15T22:22:56.014Z,3.15
2023-04-15T22:25:22.123Z,3.23
2023-04-15T22:27:48.214Z,3.22
2023-04-15T22:30:14.336Z,3.04
2023-04-15T22:32:40.514Z,2.94
2023-04-15T22:35:06.707Z,2.89
2023-04-15T22:37:32.852Z,2.76
2023-04-15T22:39:58.979Z,2.80
2023-04-15T22:42:25.136Z,2.81
2023-04-15T22:44:51.239Z,3.10
2023-04-15T22:47:17.349Z,2.99
2023-04-15T22:49:43.455Z,3.00
2023-04-15T22:52:12.273Z,2.83
2023-04-15T22:54:43.501Z,2.81
2023-04-15T22:57:09.616Z,2.88
2023-04-15T22:59:35.741Z,3.01
2023-04-15T23:02:02.072Z,3.05
2023-04-15T23:04:28.485Z,3.12
2023-04-15T23:06:54.821Z,2.86
2023-04-15T23:09:20.982Z,2.74
2023-04-15T23:11:47.110Z,2.74
2023-04-15T23:14:13.211Z,2.67
2023-04-15T23:16:39.566Z,2.58
2023-04-15T23:19:05.705Z,2.38
2023-04-15T23:21:31.812Z,2.39
2023-04-15T23:23:57.976Z,2.43
2023-04-15T23:26:24.094Z,2.53
2023-04-15T23:28:50.202Z,2.57
2023-04-15T23:31:16.431Z,2.65
2023-04-15T23:33:42.622Z,2.99
2023-04-15T23:36:08.729Z,3.06
2023-04-15T23:38:34.851Z,2.86
2023-04-15T23:41:00.941Z,2.96
2023-04-15T23:43:27.053Z,3.02
2023-04-15T23:45:53.159Z,2.88
2023-04-15T23:48:19.276Z,3.00
2023-04-15T23:50:45.394Z,3.15
2023-04-15T23:53:11.490Z,3.14
2023-04-15T23:55:37.585Z,3.14
2023-04-15T23:58:03.699Z,2.95
